De Soto, Georgia
Current Conditions -  °F | °C
As of 10:55 PM on Sunday 21 Dec 2014 (Local Time) from KACJ Reporting Station
Moderate Rain Moderate Rain  
Wind Chill: 41°   Ceiling: 300
Heat Index: 46°   Visibility: 2.5mi
Dew Point: 46°   Wind: 10mph
Humidity: 100%   Direction: 90°E
Pressure: 30.09"   Gusts: NA
Location:  31.95°N, 84.06°W
Report Text: KACJ 220355Z AUTO 09009KT 2 1/2SM RA OVC003 08/08 A3009 RMK AO2
Loading
Personal Weather Stations






























Interactive Weather Map New forecast layout! Learn more

10-Day Weather Forecast

Advertisements
Track Severe Weather on mobile